Time;durP1;ratioP1;P1;durP2;ratioP2;P2;SDS_P1;SDS_P2;PMS_P1;PMS_P2;Temp;Humidity;BMP_temperature;BMP_pressure;BME280_temperature;BME280_humidity;BME280_pressure;Samples;Min_cycle;Max_cycle;Signal;HPM_P1;HPM_P2
2022/11/15 00:02:23;;;;;;;0.28;0.20;;;;;;;;;;5055738;28;20051;-79
2022/11/15 00:04:49;;;;;;;0.20;0.10;;;;;;;;;;5038729;28;20351;-79
2022/11/15 00:07:15;;;;;;;0.20;0.10;;;;;;;;;;5056941;28;20047;-79
2022/11/15 00:09:41;;;;;;;0.20;0.10;;;;;;;;;;5048193;28;20132;-79
2022/11/15 00:12:07;;;;;;;0.20;0.10;;;;;;;;;;5060088;28;20085;-79
2022/11/15 00:14:33;;;;;;;0.20;0.10;;;;;;;;;;5059942;28;20241;-79
2022/11/15 00:16:59;;;;;;;0.20;0.10;;;;;;;;;;5041218;28;20563;-79
2022/11/15 00:19:25;;;;;;;0.20;0.10;;;;;;;;;;5052164;28;20040;-79
2022/11/15 00:21:51;;;;;;;0.20;0.15;;;;;;;;;;5024203;28;20043;-78
2022/11/15 00:24:17;;;;;;;0.20;0.10;;;;;;;;;;5044001;28;20071;-79
2022/11/15 00:26:43;;;;;;;0.20;0.10;;;;;;;;;;5054612;28;20040;-79
2022/11/15 00:29:09;;;;;;;0.20;0.10;;;;;;;;;;5037918;28;20451;-79
2022/11/15 00:31:35;;;;;;;0.20;0.10;;;;;;;;;;5054772;28;20415;-80
2022/11/15 00:34:01;;;;;;;0.20;0.10;;;;;;;;;;5024498;28;20680;-78
2022/11/15 00:36:28;;;;;;;0.20;0.20;;;;;;;;;;5036613;28;20044;-79
2022/11/15 00:38:54;;;;;;;0.20;0.10;;;;;;;;;;5057163;28;20629;-78
2022/11/15 00:41:20;;;;;;;0.20;0.10;;;;;;;;;;5043106;28;20048;-80
2022/11/15 00:43:46;;;;;;;0.35;0.20;;;;;;;;;;5039153;28;20033;-80
2022/11/15 00:46:12;;;;;;;0.20;0.10;;;;;;;;;;5055063;28;20082;-80
2022/11/15 00:48:38;;;;;;;0.20;0.10;;;;;;;;;;5044590;28;20045;-80
2022/11/15 00:51:04;;;;;;;0.20;0.10;;;;;;;;;;5036477;28;20790;-80
2022/11/15 00:53:30;;;;;;;0.57;0.25;;;;;;;;;;5041624;28;20267;-79
2022/11/15 00:55:56;;;;;;;0.20;0.10;;;;;;;;;;5037652;28;20049;-79
2022/11/15 00:58:22;;;;;;;0.20;0.10;;;;;;;;;;5054671;28;20556;-79
2022/11/15 01:00:48;;;;;;;0.20;0.10;;;;;;;;;;5036285;28;20067;-78
2022/11/15 01:03:14;;;;;;;0.20;0.10;;;;;;;;;;5040437;28;20067;-78
2022/11/15 01:05:40;;;;;;;0.20;0.10;;;;;;;;;;5053583;28;20075;-79
2022/11/15 01:08:06;;;;;;;0.20;0.10;;;;;;;;;;5054145;28;20138;-79
2022/11/15 01:10:32;;;;;;;0.20;0.10;;;;;;;;;;5055305;28;20140;-78
2022/11/15 01:12:58;;;;;;;0.63;0.63;;;;;;;;;;5054015;28;20036;-79
2022/11/15 01:15:24;;;;;;;0.20;0.10;;;;;;;;;;5043337;28;20441;-78
2022/11/15 01:17:50;;;;;;;0.20;0.10;;;;;;;;;;5054318;28;20033;-76
2022/11/15 01:20:16;;;;;;;0.20;0.10;;;;;;;;;;5036012;28;20571;-79
2022/11/15 01:22:43;;;;;;;0.20;0.10;;;;;;;;;;5040117;28;20064;-78
2022/11/15 01:25:09;;;;;;;0.20;0.20;;;;;;;;;;5038459;28;20074;-77
2022/11/15 01:27:35;;;;;;;0.20;0.10;;;;;;;;;;5055078;28;20441;-77
2022/11/15 01:30:01;;;;;;;0.77;0.52;;;;;;;;;;5040881;28;20507;-78
2022/11/15 01:32:27;;;;;;;0.20;0.10;;;;;;;;;;5029790;28;20510;-78
2022/11/15 01:34:53;;;;;;;0.20;0.10;;;;;;;;;;5028919;28;20414;-77
2022/11/15 01:37:19;;;;;;;0.20;0.00;;;;;;;;;;5057953;28;20109;-77
2022/11/15 01:39:45;;;;;;;0.30;0.30;;;;;;;;;;5057589;28;20036;-78
2022/11/15 01:42:14;;;;;;;0.95;0.22;;;;;;;;;;5056557;28;20128;-77
2022/11/15 01:44:50;;;;;;;0.20;0.10;;;;;;;;;;5058101;28;20032;-78
2022/11/15 01:47:18;;;;;;;0.20;0.10;;;;;;;;;;5056265;28;20044;-78
2022/11/15 01:49:54;;;;;;;0.20;0.10;;;;;;;;;;5055072;28;20037;-78
2022/11/15 01:52:21;;;;;;;0.20;0.20;;;;;;;;;;5056994;28;20029;-77
2022/11/15 01:54:50;;;;;;;0.28;0.28;;;;;;;;;;5058198;28;20028;-77
2022/11/15 01:57:16;;;;;;;0.20;0.20;;;;;;;;;;5059916;28;20033;-77
2022/11/15 01:59:43;;;;;;;0.20;0.10;;;;;;;;;;5054493;28;20414;-77
2022/11/15 02:02:09;;;;;;;0.20;0.10;;;;;;;;;;5054611;28;20041;-77
2022/11/15 02:04:38;;;;;;;0.20;0.15;;;;;;;;;;5040797;28;20033;-78
2022/11/15 02:07:05;;;;;;;0.20;0.10;;;;;;;;;;5057501;28;20044;-77
2022/11/15 02:09:31;;;;;;;0.20;0.17;;;;;;;;;;5057911;28;20040;-77
2022/11/15 02:11:58;;;;;;;0.20;0.20;;;;;;;;;;5060575;28;20510;-78
2022/11/15 02:14:25;;;;;;;0.20;0.10;;;;;;;;;;5050515;28;20036;-77
2022/11/15 02:17:04;;;;;;;0.20;0.13;;;;;;;;;;5062071;28;20406;-77
2022/11/15 02:19:33;;;;;;;0.20;0.10;;;;;;;;;;5064478;28;20497;-76
2022/11/15 02:22:08;;;;;;;0.20;0.10;;;;;;;;;;5060182;28;20167;-78
2022/11/15 02:24:40;;;;;;;0.20;0.10;;;;;;;;;;5065379;28;20543;-78
2022/11/15 02:27:17;;;;;;;0.20;0.10;;;;;;;;;;5051227;28;20119;-77
2022/11/15 02:29:59;;;;;;;0.20;0.13;;;;;;;;;;5058446;28;20102;-78
2022/11/15 02:32:44;;;;;;;0.20;0.10;;;;;;;;;;5062920;28;20064;-77
2022/11/15 02:35:29;;;;;;;0.20;0.10;;;;;;;;;;5047527;28;20033;-77
2022/11/15 02:38:14;;;;;;;0.32;0.32;;;;;;;;;;5050752;22;20048;-83
2022/11/15 02:40:49;;;;;;;0.20;0.10;;;;;;;;;;5013672;28;20076;-82
2022/11/15 02:46:08;;;;;;;0.20;0.10;;;;;;;;;;5019573;28;20034;-82
2022/11/15 02:48:34;;;;;;;0.45;0.17;;;;;;;;;;5006958;28;20511;-83
2022/11/15 02:51:01;;;;;;;0.20;0.10;;;;;;;;;;5018597;28;20041;-82
2022/11/15 02:53:27;;;;;;;0.20;0.10;;;;;;;;;;5005482;28;20735;-83
2022/11/15 02:55:54;;;;;;;0.20;0.10;;;;;;;;;;5016377;28;20050;-83
2022/11/15 02:58:27;;;;;;;0.20;0.10;;;;;;;;;;5000499;28;20541;-84
2022/11/15 03:00:59;;;;;;;0.20;0.10;;;;;;;;;;5014160;28;20057;-83
2022/11/15 03:03:46;;;;;;;0.20;0.10;;;;;;;;;;5001020;28;20033;-82
2022/11/15 03:06:21;;;;;;;0.20;0.10;;;;;;;;;;4973949;28;20420;-83
2022/11/15 03:08:47;;;;;;;0.28;0.17;;;;;;;;;;5012914;28;20045;-83
2022/11/15 03:11:15;;;;;;;0.20;0.10;;;;;;;;;;5017804;28;20585;-82
2022/11/15 03:13:53;;;;;;;0.20;0.10;;;;;;;;;;5001535;28;20411;-83
2022/11/15 03:16:25;;;;;;;0.20;0.10;;;;;;;;;;5002839;28;20049;-83
2022/11/15 03:18:54;;;;;;;0.20;0.10;;;;;;;;;;5000258;28;20042;-83
2022/11/15 03:21:21;;;;;;;0.30;0.30;;;;;;;;;;5005839;28;20042;-82
2022/11/15 03:23:47;;;;;;;0.20;0.13;;;;;;;;;;5014195;28;20065;-83
2022/11/15 03:26:15;;;;;;;0.20;0.10;;;;;;;;;;5014289;28;20127;-83
2022/11/15 03:28:47;;;;;;;0.20;0.10;;;;;;;;;;5014403;28;20034;-85
2022/11/15 03:34:00;;;;;;;0.20;0.10;;;;;;;;;;5012399;28;20045;-82
2022/11/15 03:36:27;;;;;;;0.20;0.10;;;;;;;;;;4994768;28;20042;-82
2022/11/15 03:38:56;;;;;;;0.35;0.20;;;;;;;;;;5001285;28;20048;-86
2022/11/15 03:41:36;;;;;;;0.20;0.10;;;;;;;;;;5013695;28;20038;-83
2022/11/15 03:44:10;;;;;;;0.20;0.10;;;;;;;;;;5003447;28;20136;-83
2022/11/15 03:46:40;;;;;;;0.20;0.10;;;;;;;;;;5018850;28;20061;-83
2022/11/15 03:49:22;;;;;;;0.20;0.10;;;;;;;;;;4999608;28;20064;-84
2022/11/15 03:51:48;;;;;;;0.30;0.30;;;;;;;;;;5016953;28;20048;-84
2022/11/15 03:54:14;;;;;;;0.20;0.10;;;;;;;;;;5011568;28;20042;-86
2022/11/15 03:56:40;;;;;;;0.20;0.10;;;;;;;;;;5004028;28;20519;-84
2022/11/15 03:59:06;;;;;;;0.20;0.10;;;;;;;;;;5003162;28;20548;-84
2022/11/15 04:01:32;;;;;;;0.20;0.10;;;;;;;;;;4987570;28;20499;-83
2022/11/15 04:03:58;;;;;;;0.20;0.10;;;;;;;;;;5003738;28;22530;-84
2022/11/15 04:06:24;;;;;;;0.20;0.10;;;;;;;;;;4985676;28;20045;-82
2022/11/15 04:08:50;;;;;;;0.20;0.10;;;;;;;;;;5007015;28;20063;-84
2022/11/15 04:11:16;;;;;;;0.20;0.10;;;;;;;;;;5017351;28;20034;-84
2022/11/15 04:13:42;;;;;;;0.20;0.10;;;;;;;;;;5010692;28;20033;-84
2022/11/15 04:16:08;;;;;;;0.20;0.10;;;;;;;;;;5004958;28;20041;-84
2022/11/15 04:18:34;;;;;;;0.20;0.10;;;;;;;;;;5006711;28;20041;-83
2022/11/15 04:26:19;;;;;;;0.20;0.10;;;;;;;;;;5017313;28;20155;-83
2022/11/15 04:31:29;;;;;;;0.20;0.10;;;;;;;;;;4999614;28;20046;-82
2022/11/15 04:33:55;;;;;;;0.20;0.10;;;;;;;;;;4999166;28;21647;-82
2022/11/15 04:39:06;;;;;;;0.20;0.10;;;;;;;;;;5017412;28;20161;-82
2022/11/15 04:41:32;;;;;;;0.20;0.03;;;;;;;;;;5015567;28;20052;-84
2022/11/15 04:43:58;;;;;;;0.20;0.10;;;;;;;;;;5004735;28;20045;-83
2022/11/15 04:46:25;;;;;;;0.20;0.10;;;;;;;;;;5001685;28;20041;-83
2022/11/15 04:48:51;;;;;;;0.20;0.10;;;;;;;;;;5002576;28;20087;-83
2022/11/15 04:51:17;;;;;;;0.20;0.10;;;;;;;;;;5003740;28;20062;-82
2022/11/15 04:53:43;;;;;;;0.20;0.10;;;;;;;;;;5017132;28;20042;-84
2022/11/15 04:56:09;;;;;;;0.20;0.10;;;;;;;;;;5006788;28;20134;-84
2022/11/15 04:58:35;;;;;;;0.20;0.10;;;;;;;;;;4989918;28;20068;-85
2022/11/15 05:01:08;;;;;;;0.20;0.10;;;;;;;;;;5015988;28;20077;-83
2022/11/15 05:06:19;;;;;;;0.20;0.10;;;;;;;;;;5020274;28;19928;-84
2022/11/15 05:08:45;;;;;;;0.20;0.10;;;;;;;;;;4986877;28;20120;-83
2022/11/15 05:11:11;;;;;;;3.90;0.43;;;;;;;;;;4988969;28;20033;-83
2022/11/15 05:13:37;;;;;;;0.20;0.10;;;;;;;;;;5005702;28;20033;-83
2022/11/15 05:16:03;;;;;;;0.20;0.10;;;;;;;;;;5016606;28;20599;-83
2022/11/15 05:18:29;;;;;;;0.20;0.10;;;;;;;;;;5007404;28;20055;-83
2022/11/15 05:20:55;;;;;;;0.20;0.10;;;;;;;;;;5005135;28;20495;-85
2022/11/15 05:23:21;;;;;;;0.20;0.10;;;;;;;;;;5006694;28;20290;-82
2022/11/15 05:25:47;;;;;;;0.20;0.10;;;;;;;;;;5027168;28;20137;-83
2022/11/15 05:28:13;;;;;;;0.20;0.10;;;;;;;;;;5003793;28;20495;-83
2022/11/15 05:30:39;;;;;;;0.20;0.10;;;;;;;;;;4992190;28;20478;-83
2022/11/15 05:33:06;;;;;;;0.20;0.10;;;;;;;;;;5003300;28;20503;-83
2022/11/15 05:35:37;;;;;;;0.20;0.10;;;;;;;;;;5018756;28;20654;-84
2022/11/15 05:38:03;;;;;;;0.20;0.00;;;;;;;;;;5006585;28;20459;-85
2022/11/15 05:40:30;;;;;;;0.20;0.10;;;;;;;;;;5022365;28;20040;-84
2022/11/15 05:42:56;;;;;;;0.20;0.10;;;;;;;;;;5009178;28;20049;-83
2022/11/15 05:45:22;;;;;;;1.23;1.13;;;;;;;;;;5018696;28;20578;-83
2022/11/15 05:47:49;;;;;;;0.20;0.10;;;;;;;;;;4991050;28;20514;-84
2022/11/15 05:50:17;;;;;;;0.20;0.10;;;;;;;;;;5005115;28;20040;-83
2022/11/15 05:52:43;;;;;;;0.20;0.10;;;;;;;;;;5007312;28;20124;-84
2022/11/15 05:55:10;;;;;;;0.20;0.10;;;;;;;;;;5009073;28;20033;-83
2022/11/15 05:57:36;;;;;;;0.20;0.10;;;;;;;;;;5024202;28;20112;-83
2022/11/15 06:00:03;;;;;;;0.20;0.10;;;;;;;;;;5001896;28;20430;-84
2022/11/15 06:02:29;;;;;;;0.20;0.10;;;;;;;;;;5027280;28;20046;-83
2022/11/15 06:04:55;;;;;;;0.20;0.10;;;;;;;;;;5023568;28;20067;-84
2022/11/15 06:07:21;;;;;;;0.30;0.20;;;;;;;;;;5005462;28;20048;-84
2022/11/15 06:09:47;;;;;;;0.47;0.10;;;;;;;;;;5020849;28;20065;-83
2022/11/15 06:12:14;;;;;;;0.20;0.10;;;;;;;;;;5025036;28;20037;-83
2022/11/15 06:14:40;;;;;;;0.20;0.10;;;;;;;;;;5008255;28;20051;-83
2022/11/15 06:17:06;;;;;;;0.20;0.10;;;;;;;;;;4987178;28;20030;-83
2022/11/15 06:19:32;;;;;;;0.30;0.10;;;;;;;;;;5022907;28;20442;-84
2022/11/15 06:21:59;;;;;;;0.20;0.10;;;;;;;;;;4999195;28;20046;-86
2022/11/15 06:24:25;;;;;;;0.20;0.10;;;;;;;;;;4998665;28;20095;-84
2022/11/15 06:26:51;;;;;;;0.20;0.20;;;;;;;;;;5010801;28;20373;-84
2022/11/15 06:29:17;;;;;;;0.20;0.10;;;;;;;;;;4987349;28;20132;-84
2022/11/15 06:31:43;;;;;;;0.20;0.10;;;;;;;;;;5024843;28;20102;-85
2022/11/15 06:34:10;;;;;;;0.20;0.10;;;;;;;;;;4984892;28;20072;-83
2022/11/15 06:36:36;;;;;;;0.20;0.10;;;;;;;;;;4999450;28;20045;-82
2022/11/15 06:39:03;;;;;;;0.20;0.10;;;;;;;;;;5016209;28;20092;-83
2022/11/15 06:41:29;;;;;;;0.20;0.10;;;;;;;;;;5016330;28;20521;-83
2022/11/15 06:43:55;;;;;;;0.20;0.10;;;;;;;;;;5003393;28;20056;-82
2022/11/15 06:46:21;;;;;;;0.20;0.10;;;;;;;;;;5017833;28;20040;-81
2022/11/15 06:48:49;;;;;;;0.20;0.10;;;;;;;;;;5015372;28;20064;-82
2022/11/15 06:51:15;;;;;;;0.20;0.10;;;;;;;;;;5016359;28;20049;-84
2022/11/15 06:53:41;;;;;;;0.20;0.10;;;;;;;;;;4989508;28;20121;-82
2022/11/15 06:56:10;;;;;;;0.20;0.10;;;;;;;;;;5002462;28;20041;-81
2022/11/15 06:58:36;;;;;;;0.20;0.10;;;;;;;;;;5003129;28;20052;-83
2022/11/15 07:01:22;;;;;;;0.20;0.10;;;;;;;;;;5016746;28;20572;-82
2022/11/15 07:03:48;;;;;;;0.20;0.10;;;;;;;;;;4997991;28;20044;-82
2022/11/15 07:06:14;;;;;;;0.20;0.20;;;;;;;;;;5013302;28;20244;-83
2022/11/15 07:08:41;;;;;;;0.20;0.10;;;;;;;;;;4986749;28;20041;-81
2022/11/15 07:11:08;;;;;;;0.28;0.10;;;;;;;;;;4990458;28;20041;-82
2022/11/15 07:13:35;;;;;;;0.20;0.10;;;;;;;;;;4987250;28;20068;-83
2022/11/15 07:16:05;;;;;;;0.20;0.10;;;;;;;;;;5019201;28;20045;-82
2022/11/15 07:18:33;;;;;;;0.20;0.10;;;;;;;;;;5006553;28;20045;-83
2022/11/15 07:21:07;;;;;;;0.28;0.20;;;;;;;;;;4996923;28;20057;-84
2022/11/15 07:23:33;;;;;;;0.20;0.05;;;;;;;;;;5018341;28;20396;-83
2022/11/15 07:25:59;;;;;;;0.20;0.10;;;;;;;;;;5009351;28;20388;-83
2022/11/15 07:28:26;;;;;;;0.20;0.10;;;;;;;;;;4988319;28;20044;-85
2022/11/15 07:30:52;;;;;;;0.20;0.10;;;;;;;;;;4991051;28;20056;-85
2022/11/15 07:33:18;;;;;;;0.20;0.10;;;;;;;;;;5021245;28;20540;-85
2022/11/15 07:35:48;;;;;;;0.20;0.10;;;;;;;;;;5017880;28;20064;-85
2022/11/15 07:38:14;;;;;;;0.20;0.10;;;;;;;;;;5015246;28;20041;-85
2022/11/15 07:40:41;;;;;;;0.20;0.10;;;;;;;;;;5017300;28;20679;-86
2022/11/15 07:43:08;;;;;;;0.20;0.10;;;;;;;;;;4983931;28;20149;-85
2022/11/15 07:45:34;;;;;;;0.20;0.03;;;;;;;;;;5028687;28;20518;-85
2022/11/15 07:48:00;;;;;;;0.20;0.10;;;;;;;;;;5010438;28;20045;-83
2022/11/15 07:50:29;;;;;;;0.20;0.08;;;;;;;;;;5013725;28;20034;-87
2022/11/15 07:52:56;;;;;;;0.20;0.10;;;;;;;;;;5002835;28;20037;-85
2022/11/15 07:55:26;;;;;;;0.20;0.10;;;;;;;;;;5001877;28;20045;-85
2022/11/15 07:57:53;;;;;;;0.20;0.00;;;;;;;;;;5005875;28;20045;-84
2022/11/15 08:00:19;;;;;;;0.20;0.10;;;;;;;;;;4998931;28;20403;-85
2022/11/15 08:02:45;;;;;;;0.20;0.10;;;;;;;;;;4999759;28;20038;-85
2022/11/15 08:05:12;;;;;;;0.43;0.40;;;;;;;;;;4994841;28;20038;-86
2022/11/15 08:07:38;;;;;;;0.20;0.10;;;;;;;;;;5008769;28;20033;-88
2022/11/15 08:10:06;;;;;;;0.20;0.10;;;;;;;;;;4991712;28;20041;-88
2022/11/15 08:12:33;;;;;;;0.20;0.10;;;;;;;;;;5011165;28;20621;-85
2022/11/15 08:15:01;;;;;;;0.20;0.10;;;;;;;;;;5001214;28;20038;-86
2022/11/15 08:17:35;;;;;;;0.20;0.10;;;;;;;;;;5010858;28;20045;-81
2022/11/15 08:20:01;;;;;;;0.20;0.10;;;;;;;;;;5019293;28;20747;-85
2022/11/15 08:22:27;;;;;;;0.20;0.05;;;;;;;;;;5011506;28;20076;-84
2022/11/15 08:24:53;;;;;;;0.20;0.10;;;;;;;;;;4999999;28;20049;-86
2022/11/15 08:27:19;;;;;;;0.20;0.10;;;;;;;;;;5017763;28;20514;-85
2022/11/15 08:29:46;;;;;;;0.20;0.10;;;;;;;;;;5016163;28;20126;-85
2022/11/15 08:32:12;;;;;;;0.20;0.10;;;;;;;;;;5018034;28;20720;-85
2022/11/15 08:34:39;;;;;;;0.22;0.22;;;;;;;;;;4999179;28;20049;-85
2022/11/15 08:37:05;;;;;;;0.20;0.10;;;;;;;;;;5036798;22;20099;-78
2022/11/15 08:39:31;;;;;;;0.35;0.28;;;;;;;;;;5041720;28;20092;-78
2022/11/15 08:41:57;;;;;;;0.20;0.10;;;;;;;;;;5011631;28;20805;-78
2022/11/15 08:44:23;;;;;;;0.20;0.10;;;;;;;;;;5048034;28;20070;-78
2022/11/15 08:46:50;;;;;;;0.20;0.10;;;;;;;;;;5033027;28;20392;-79
2022/11/15 08:49:16;;;;;;;0.20;0.10;;;;;;;;;;5045675;28;20064;-78
2022/11/15 08:51:42;;;;;;;0.20;0.10;;;;;;;;;;5043036;28;20040;-78
2022/11/15 08:54:08;;;;;;;0.20;0.10;;;;;;;;;;5051605;28;20186;-78
2022/11/15 08:56:34;;;;;;;0.20;0.20;;;;;;;;;;5051770;28;20047;-78
2022/11/15 08:59:00;;;;;;;0.20;0.10;;;;;;;;;;5037561;28;20068;-77
2022/11/15 09:01:26;;;;;;;2.45;0.30;;;;;;;;;;5015618;28;20044;-78
2022/11/15 09:03:52;;;;;;;0.20;0.10;;;;;;;;;;5033049;28;20121;-78
2022/11/15 09:06:18;;;;;;;0.20;0.10;;;;;;;;;;5042553;28;20195;-78
2022/11/15 09:08:45;;;;;;;0.20;0.10;;;;;;;;;;5021544;28;20102;-79
2022/11/15 09:11:12;;;;;;;0.20;0.10;;;;;;;;;;5034251;28;20107;-79
2022/11/15 09:13:38;;;;;;;0.20;0.10;;;;;;;;;;5027301;28;20452;-78
2022/11/15 09:16:04;;;;;;;0.20;0.10;;;;;;;;;;5042010;28;20049;-78
2022/11/15 09:18:31;;;;;;;0.20;0.10;;;;;;;;;;5025084;28;20102;-78
2022/11/15 09:20:58;;;;;;;0.20;0.10;;;;;;;;;;5028465;28;20044;-78
2022/11/15 09:23:24;;;;;;;0.20;0.10;;;;;;;;;;5023554;28;20036;-78
2022/11/15 09:25:50;;;;;;;0.20;0.10;;;;;;;;;;5047488;28;20430;-78
2022/11/15 09:28:16;;;;;;;0.20;0.10;;;;;;;;;;5046746;28;20037;-78
2022/11/15 09:30:42;;;;;;;0.20;0.10;;;;;;;;;;5006444;28;20134;-78
2022/11/15 09:33:09;;;;;;;0.20;0.10;;;;;;;;;;5043087;28;20219;-80
2022/11/15 09:35:35;;;;;;;0.20;0.10;;;;;;;;;;5041555;28;20036;-79
2022/11/15 09:38:01;;;;;;;0.20;0.10;;;;;;;;;;5042734;28;20048;-78
2022/11/15 09:40:27;;;;;;;0.20;0.10;;;;;;;;;;5028688;28;20037;-77
2022/11/15 09:42:53;;;;;;;0.20;0.10;;;;;;;;;;5027301;28;20111;-80
2022/11/15 09:45:26;;;;;;;0.20;0.20;;;;;;;;;;5045076;28;20429;-78
2022/11/15 09:48:05;;;;;;;0.20;0.20;;;;;;;;;;5038564;28;20037;-78
2022/11/15 09:50:43;;;;;;;0.20;0.10;;;;;;;;;;5046703;28;21726;-78
2022/11/15 09:53:12;;;;;;;0.20;0.00;;;;;;;;;;5045354;28;20502;-78
2022/11/15 09:55:44;;;;;;;0.20;0.10;;;;;;;;;;5048655;28;20047;-78
2022/11/15 09:58:23;;;;;;;0.20;0.10;;;;;;;;;;5047942;28;20384;-78
2022/11/15 10:00:51;;;;;;;0.20;0.10;;;;;;;;;;5048834;28;20584;-79
2022/11/15 10:03:33;;;;;;;0.20;0.10;;;;;;;;;;5048085;28;20462;-78
2022/11/15 10:06:02;;;;;;;0.20;0.10;;;;;;;;;;5049292;28;20044;-78
2022/11/15 10:08:28;;;;;;;0.20;0.10;;;;;;;;;;5046721;28;20303;-78
2022/11/15 10:11:02;;;;;;;0.20;0.15;;;;;;;;;;5029018;28;20136;-78
2022/11/15 10:13:32;;;;;;;0.20;0.10;;;;;;;;;;5024966;28;20112;-78
2022/11/15 10:16:09;;;;;;;0.20;0.10;;;;;;;;;;5049626;28;20037;-78
2022/11/15 10:18:43;;;;;;;0.20;0.10;;;;;;;;;;5032583;28;20041;-78
2022/11/15 10:21:16;;;;;;;0.20;0.10;;;;;;;;;;5047398;28;20616;-78
2022/11/15 10:23:42;;;;;;;0.20;0.10;;;;;;;;;;5048204;28;20502;-78
2022/11/15 10:26:10;;;;;;;0.20;0.10;;;;;;;;;;5013152;28;20055;-78
2022/11/15 10:28:36;;;;;;;0.20;0.10;;;;;;;;;;5032405;28;20041;-78
2022/11/15 10:31:02;;;;;;;0.77;0.22;;;;;;;;;;5047710;28;20451;-78
2022/11/15 10:33:34;;;;;;;0.20;0.10;;;;;;;;;;5044104;28;20029;-78
2022/11/15 10:36:10;;;;;;;0.20;0.10;;;;;;;;;;5033342;28;20041;-78
2022/11/15 10:38:48;;;;;;;0.20;0.10;;;;;;;;;;5048828;28;20052;-78
2022/11/15 10:41:15;;;;;;;0.20;0.10;;;;;;;;;;5047065;28;20044;-79
2022/11/15 10:43:41;;;;;;;0.20;0.10;;;;;;;;;;5048608;28;20036;-78
2022/11/15 10:46:19;;;;;;;0.20;0.10;;;;;;;;;;5047006;28;20099;-78
2022/11/15 10:48:46;;;;;;;0.20;0.10;;;;;;;;;;5047252;28;20102;-79
2022/11/15 10:51:22;;;;;;;0.20;0.10;;;;;;;;;;5045964;28;20037;-78
2022/11/15 10:53:48;;;;;;;0.20;0.10;;;;;;;;;;5050639;28;20506;-78
2022/11/15 10:56:18;;;;;;;0.20;0.10;;;;;;;;;;5050407;28;20128;-78
2022/11/15 10:58:45;;;;;;;0.20;0.10;;;;;;;;;;5048949;28;20295;-79
2022/11/15 11:01:23;;;;;;;0.20;0.10;;;;;;;;;;5025867;28;20415;-78
2022/11/15 11:04:05;;;;;;;0.20;0.10;;;;;;;;;;5049465;28;20079;-78
2022/11/15 11:06:31;;;;;;;;;;;;;;;;;;5046916;28;20025;-78
2022/11/15 11:08:59;;;;;;;0.20;0.10;;;;;;;;;;5049490;28;20344;-78
2022/11/15 11:11:43;;;;;;;0.20;0.10;;;;;;;;;;5047265;28;20115;-78
2022/11/15 11:14:13;;;;;;;0.20;0.10;;;;;;;;;;5049224;28;20088;-77
2022/11/15 11:16:39;;;;;;;0.20;0.10;;;;;;;;;;5047942;28;20128;-78
2022/11/15 11:19:16;;;;;;;0.20;0.10;;;;;;;;;;5046697;28;20116;-78
2022/11/15 11:21:47;;;;;;;0.20;0.10;;;;;;;;;;5023243;28;20783;-78
2022/11/15 11:24:25;;;;;;;0.20;0.10;;;;;;;;;;5048241;28;20358;-78
2022/11/15 11:26:54;;;;;;;0.20;0.10;;;;;;;;;;5050193;28;20056;-78
2022/11/15 11:29:44;;;;;;;0.20;0.10;;;;;;;;;;5026621;28;20037;-77
2022/11/15 11:32:25;;;;;;;0.20;0.10;;;;;;;;;;5045145;28;20037;-78
2022/11/15 11:34:59;;;;;;;0.57;0.15;;;;;;;;;;5043680;28;20040;-78
2022/11/15 11:37:54;;;;;;;0.20;0.10;;;;;;;;;;5048495;28;20507;-78
2022/11/15 11:40:31;;;;;;;0.20;0.10;;;;;;;;;;5014851;28;20581;-78
2022/11/15 11:43:07;;;;;;;0.20;0.10;;;;;;;;;;5035060;28;20675;-77
2022/11/15 11:45:42;;;;;;;0.20;0.10;;;;;;;;;;5048006;28;20076;-78
2022/11/15 11:48:37;;;;;;;0.20;0.10;;;;;;;;;;5061699;28;20069;-78
2022/11/15 11:51:10;;;;;;;0.20;0.10;;;;;;;;;;5047521;28;20041;-79
2022/11/15 11:53:39;;;;;;;0.20;0.10;;;;;;;;;;5047731;28;20036;-78
2022/11/15 11:56:17;;;;;;;0.20;0.20;;;;;;;;;;5041911;28;20515;-78
2022/11/15 11:58:44;;;;;;;0.20;0.20;;;;;;;;;;5046687;28;20056;-78
2022/11/15 12:01:29;;;;;;;0.20;0.10;;;;;;;;;;5009703;28;20562;-78
2022/11/15 12:03:58;;;;;;;0.20;0.00;;;;;;;;;;5036458;28;20154;-77
2022/11/15 12:06:30;;;;;;;0.28;0.28;;;;;;;;;;5045928;28;20521;-77
2022/11/15 12:08:56;;;;;;;0.20;0.10;;;;;;;;;;5033870;28;20033;-77
2022/11/15 12:11:31;;;;;;;0.20;0.10;;;;;;;;;;5042773;28;20041;-77
2022/11/15 12:13:59;;;;;;;0.20;0.10;;;;;;;;;;5050589;28;20052;-77
2022/11/15 12:16:32;;;;;;;0.20;0.10;;;;;;;;;;5048736;28;20116;-78
2022/11/15 12:19:03;;;;;;;0.20;0.10;;;;;;;;;;5032569;28;20048;-78
2022/11/15 12:21:38;;;;;;;0.20;0.10;;;;;;;;;;5038153;28;20108;-77
2022/11/15 12:24:12;;;;;;;0.20;0.10;;;;;;;;;;5036214;28;20037;-77
2022/11/15 12:26:40;;;;;;;0.20;0.10;;;;;;;;;;5042083;28;20037;-78
2022/11/15 12:29:39;;;;;;;0.20;0.10;;;;;;;;;;5041262;28;20037;-77
2022/11/15 12:32:06;;;;;;;0.20;0.10;;;;;;;;;;5023522;28;20051;-78
2022/11/15 12:34:44;;;;;;;0.20;0.10;;;;;;;;;;5047531;28;20071;-78
2022/11/15 12:37:29;;;;;;;0.20;0.10;;;;;;;;;;5046414;28;20049;-79
2022/11/15 12:40:14;;;;;;;0.20;0.10;;;;;;;;;;5040719;28;20047;-78
2022/11/15 12:42:57;;;;;;;0.20;0.10;;;;;;;;;;5041739;28;20064;-79
2022/11/15 12:45:26;;;;;;;0.20;0.10;;;;;;;;;;5032292;28;20048;-77
2022/11/15 12:47:52;;;;;;;0.20;0.10;;;;;;;;;;5044007;28;20123;-78
2022/11/15 12:50:38;;;;;;;0.20;0.10;;;;;;;;;;5047780;28;20052;-78
2022/11/15 12:53:26;;;;;;;0.20;0.10;;;;;;;;;;5029419;28;20036;-79
2022/11/15 12:56:05;;;;;;;0.20;0.10;;;;;;;;;;5036971;28;20186;-78
2022/11/15 12:58:43;;;;;;;0.20;0.10;;;;;;;;;;5051644;28;20037;-77
2022/11/15 13:01:09;;;;;;;0.20;0.10;;;;;;;;;;5044002;28;20037;-78
2022/11/15 13:03:35;;;;;;;0.20;0.10;;;;;;;;;;5049616;28;20057;-79
2022/11/15 13:06:04;;;;;;;0.20;0.10;;;;;;;;;;5024210;28;20029;-79
2022/11/15 13:08:37;;;;;;;0.20;0.05;;;;;;;;;;5030819;28;20128;-79
2022/11/15 13:11:39;;;;;;;0.20;0.08;;;;;;;;;;5063452;28;20482;-78
2022/11/15 13:14:25;;;;;;;0.20;0.10;;;;;;;;;;4979744;28;20037;-77
2022/11/15 13:16:57;;;;;;;0.20;0.10;;;;;;;;;;5041691;28;20053;-79
2022/11/15 13:19:23;;;;;;;;;;;;;;;;;;5048446;28;20041;-79
2022/11/15 13:24:38;;;;;;;0.20;0.10;;;;;;;;;;5045366;28;20044;-78
2022/11/15 13:27:16;;;;;;;0.20;0.10;;;;;;;;;;5033928;28;20032;-77
2022/11/15 13:29:44;;;;;;;0.20;0.10;;;;;;;;;;5044446;28;20797;-77
2022/11/15 13:32:13;;;;;;;0.20;0.10;;;;;;;;;;5030735;28;20037;-78
2022/11/15 13:34:46;;;;;;;0.20;0.10;;;;;;;;;;5053689;28;20039;-79
2022/11/15 13:37:21;;;;;;;0.20;0.10;;;;;;;;;;5050038;28;20048;-78
2022/11/15 13:39:47;;;;;;;0.20;0.10;;;;;;;;;;5050538;28;20079;-78
2022/11/15 13:42:15;;;;;;;0.20;0.10;;;;;;;;;;5054319;28;20057;-79
2022/11/15 13:44:54;;;;;;;0.20;0.10;;;;;;;;;;5027508;28;20415;-78
2022/11/15 13:47:20;;;;;;;0.20;0.10;;;;;;;;;;5026074;28;20415;-77
2022/11/15 13:49:47;;;;;;;0.20;0.00;;;;;;;;;;5022141;28;20415;-78
2022/11/15 13:52:16;;;;;;;0.20;0.10;;;;;;;;;;5050993;28;20394;-78
2022/11/15 13:54:46;;;;;;;0.20;0.10;;;;;;;;;;5037707;28;20642;-78
2022/11/15 13:57:12;;;;;;;0.20;0.10;;;;;;;;;;5033808;28;20048;-78
2022/11/15 13:59:46;;;;;;;0.20;0.10;;;;;;;;;;5047322;28;20407;-78
2022/11/15 14:02:17;;;;;;;0.20;0.10;;;;;;;;;;5049499;28;20033;-78
2022/11/15 14:04:47;;;;;;;0.20;0.10;;;;;;;;;;5045330;28;20052;-77
2022/11/15 14:07:20;;;;;;;0.20;0.10;;;;;;;;;;5047394;28;20033;-77
2022/11/15 14:09:46;;;;;;;0.20;0.10;;;;;;;;;;5020808;28;20732;-77
2022/11/15 14:12:25;;;;;;;0.20;0.10;;;;;;;;;;5044492;28;20068;-77
2022/11/15 14:14:51;;;;;;;0.20;0.10;;;;;;;;;;5043828;28;20033;-78
2022/11/15 14:17:37;;;;;;;0.20;0.10;;;;;;;;;;5060130;28;20091;-77
2022/11/15 14:20:19;;;;;;;0.20;0.10;;;;;;;;;;5046934;28;20048;-78
2022/11/15 14:22:53;;;;;;;0.20;0.10;;;;;;;;;;5050929;28;20383;-78
2022/11/15 14:25:23;;;;;;;0.20;0.10;;;;;;;;;;5055563;28;20080;-77
2022/11/15 14:28:08;;;;;;;0.20;0.10;;;;;;;;;;5027723;28;20483;-78
2022/11/15 14:30:34;;;;;;;0.20;0.10;;;;;;;;;;5018448;28;20038;-77
2022/11/15 14:33:00;;;;;;;0.20;0.10;;;;;;;;;;5041978;28;20511;-78
2022/11/15 14:35:27;;;;;;;0.20;0.10;;;;;;;;;;5045404;28;20048;-78
2022/11/15 14:37:53;;;;;;;0.20;0.10;;;;;;;;;;5033096;22;20063;-84
2022/11/15 14:40:20;;;;;;;0.20;0.10;;;;;;;;;;5011635;28;20045;-84
2022/11/15 14:42:47;;;;;;;0.20;0.10;;;;;;;;;;5017321;28;20091;-85
2022/11/15 14:45:14;;;;;;;0.20;0.10;;;;;;;;;;5000420;28;20479;-86
2022/11/15 14:47:41;;;;;;;0.20;0.10;;;;;;;;;;4998164;28;20148;-85
2022/11/15 14:50:11;;;;;;;0.20;0.10;;;;;;;;;;4980697;28;20038;-86
2022/11/15 14:52:40;;;;;;;0.20;0.10;;;;;;;;;;4991246;28;20118;-86
2022/11/15 14:55:16;;;;;;;0.20;0.10;;;;;;;;;;4992824;28;20395;-86
2022/11/15 14:57:42;;;;;;;0.20;0.10;;;;;;;;;;5004409;28;20069;-85
2022/11/15 15:00:11;;;;;;;0.20;0.10;;;;;;;;;;5002042;28;20041;-85
2022/11/15 15:02:37;;;;;;;0.20;0.10;;;;;;;;;;4998094;28;20045;-85
2022/11/15 15:05:20;;;;;;;0.20;0.10;;;;;;;;;;5002909;28;20041;-86
2022/11/15 15:07:47;;;;;;;0.20;0.10;;;;;;;;;;5000558;28;20032;-85
2022/11/15 15:10:13;;;;;;;0.20;0.10;;;;;;;;;;4987657;28;20397;-87
2022/11/15 15:12:40;;;;;;;0.20;0.10;;;;;;;;;;4998706;28;20045;-87
2022/11/15 15:15:06;;;;;;;0.20;0.10;;;;;;;;;;4990923;28;20060;-86
2022/11/15 15:17:32;;;;;;;0.20;0.10;;;;;;;;;;4979377;28;20132;-87
2022/11/15 15:19:59;;;;;;;0.20;0.10;;;;;;;;;;4996475;28;20037;-87